Time;durP1;ratioP1;P1;durP2;ratioP2;P2;SDS_P1;SDS_P2;PMS_P1;PMS_P2;Temp;Humidity;BMP_temperature;BMP_pressure;BME280_temperature;BME280_humidity;BME280_pressure;Samples;Min_cycle;Max_cycle;Signal;HPM_P1;HPM_P2
2022/06/23 00:00:58;;;;;;;18.17;13.80;;;;;;;;;;4963078;28;20194;-86
2022/06/23 00:04:03;;;;;;;15.73;13.00;;;;;;;;;;4963324;28;20558;-86
2022/06/23 00:07:15;;;;;;;13.30;10.57;;;;;;;;;;4974049;28;20712;-86
2022/06/23 00:10:26;;;;;;;13.67;11.43;;;;;;;;;;4963344;28;20186;-86
2022/06/23 00:13:37;;;;;;;14.00;12.43;;;;;;;;;;4974728;28;20186;-85
2022/06/23 00:16:41;;;;;;;17.13;12.37;;;;;;;;;;4963249;28;20214;-86
2022/06/23 00:19:45;;;;;;;14.80;11.50;;;;;;;;;;4973943;28;20190;-86
2022/06/23 00:22:58;;;;;;;13.90;11.07;;;;;;;;;;4973921;28;20661;-86
2022/06/23 00:26:19;;;;;;;15.77;11.73;;;;;;;;;;4975142;28;20191;-83
2022/06/23 00:29:24;;;;;;;14.03;12.53;;;;;;;;;;4996330;28;20205;-85
2022/06/23 00:32:29;;;;;;;15.77;13.27;;;;;;;;;;4997303;28;20675;-86
2022/06/23 00:35:34;;;;;;;14.10;11.83;;;;;;;;;;4987584;28;20221;-83
2022/06/23 00:38:39;;;;;;;15.77;11.97;;;;;;;;;;4987780;28;20178;-83
2022/06/23 00:41:43;;;;;;;16.87;13.67;;;;;;;;;;4987026;28;20189;-86
2022/06/23 00:45:09;;;;;;;15.07;12.10;;;;;;;;;;4997625;28;20650;-85
2022/06/23 00:48:28;;;;;;;27.10;17.17;;;;;;;;;;4996687;28;20221;-86
2022/06/23 00:51:40;;;;;;;19.90;17.80;;;;;;;;;;4997703;28;20660;-84
2022/06/23 00:54:51;;;;;;;21.07;16.53;;;;;;;;;;4988755;28;20212;-84
2022/06/23 00:58:00;;;;;;;16.63;14.47;;;;;;;;;;5018976;28;20240;-86
2022/06/23 01:01:13;;;;;;;20.70;14.10;;;;;;;;;;5006471;28;20185;-84
2022/06/23 01:04:21;;;;;;;16.63;13.33;;;;;;;;;;4966267;28;20193;-86
2022/06/23 01:07:51;;;;;;;17.90;14.47;;;;;;;;;;4989584;28;20237;-84
2022/06/23 01:11:28;;;;;;;20.53;15.97;;;;;;;;;;4978356;28;20189;-85
2022/06/23 01:14:34;;;;;;;16.90;14.67;;;;;;;;;;4985017;28;20228;-84
2022/06/23 01:17:43;;;;;;;17.70;14.17;;;;;;;;;;4994858;28;20224;-86
2022/06/23 01:21:21;;;;;;;15.70;14.03;;;;;;;;;;5015596;28;20568;-86
2022/06/23 01:24:50;;;;;;;15.50;13.23;;;;;;;;;;5015767;28;20204;-86
2022/06/23 01:27:57;;;;;;;18.80;15.23;;;;;;;;;;4993267;28;20224;-86
2022/06/23 01:31:34;;;;;;;19.77;14.90;;;;;;;;;;5006076;28;20194;-86
2022/06/23 01:34:43;;;;;;;17.33;13.50;;;;;;;;;;4995682;28;20572;-84
2022/06/23 01:37:54;;;;;;;16.77;13.67;;;;;;;;;;4993031;28;20308;-85
2022/06/23 01:41:04;;;;;;;23.70;18.57;;;;;;;;;;5011629;28;20209;-83
2022/06/23 01:44:36;;;;;;;28.90;18.17;;;;;;;;;;4984877;28;20688;-86
2022/06/23 01:47:58;;;;;;;20.03;17.20;;;;;;;;;;4996015;28;20589;-86
2022/06/23 01:51:03;;;;;;;21.50;16.70;;;;;;;;;;4990698;28;20261;-86
2022/06/23 01:54:22;;;;;;;21.03;17.03;;;;;;;;;;5003967;28;20212;-85
2022/06/23 01:57:52;;;;;;;23.53;18.90;;;;;;;;;;4992746;28;20240;-86
2022/06/23 02:01:00;;;;;;;20.90;18.17;;;;;;;;;;4966286;28;20189;-84
2022/06/23 02:04:24;;;;;;;17.47;15.67;;;;;;;;;;4967625;28;20186;-87
2022/06/23 02:07:40;;;;;;;19.47;16.90;;;;;;;;;;4968141;28;20222;-84
2022/06/23 02:10:54;;;;;;;18.40;16.30;;;;;;;;;;4979297;28;20546;-84
2022/06/23 02:14:13;;;;;;;20.53;15.17;;;;;;;;;;4990438;28;20194;-84
2022/06/23 02:17:29;;;;;;;20.43;18.43;;;;;;;;;;4989939;28;20226;-84
2022/06/23 02:20:46;;;;;;;24.20;20.17;;;;;;;;;;4979423;28;20202;-84
2022/06/23 02:24:26;;;;;;;19.10;15.60;;;;;;;;;;4997413;28;20201;-84
2022/06/23 02:27:48;;;;;;;18.17;14.70;;;;;;;;;;5008022;28;20274;-84
2022/06/23 02:31:11;;;;;;;17.97;14.47;;;;;;;;;;4993576;28;20201;-84
2022/06/23 02:34:24;;;;;;;14.07;12.00;;;;;;;;;;4987327;28;20205;-84
2022/06/23 02:38:03;;;;;;;20.07;15.40;;;;;;;;;;4997764;28;20225;-84
2022/06/23 02:41:28;;;;;;;21.93;15.27;;;;;;;;;;5008721;28;20557;-84
2022/06/23 02:44:55;;;;;;;24.13;15.07;;;;;;;;;;4986853;28;20189;-84
2022/06/23 02:48:02;;;;;;;15.23;13.63;;;;;;;;;;4983045;28;20249;-84
2022/06/23 02:51:25;;;;;;;16.60;14.83;;;;;;;;;;5005145;28;20584;-84
2022/06/23 02:54:30;;;;;;;16.40;14.70;;;;;;;;;;4989027;28;20202;-84
2022/06/23 02:57:46;;;;;;;23.37;18.57;;;;;;;;;;4997843;28;20221;-84
2022/06/23 03:01:01;;;;;;;21.17;17.47;;;;;;;;;;4997469;28;20205;-84
2022/06/23 03:04:18;;;;;;;21.40;16.67;;;;;;;;;;4998260;28;20194;-84
2022/06/23 03:07:44;;;;;;;24.93;17.10;;;;;;;;;;4986967;28;20569;-84
2022/06/23 03:11:01;;;;;;;20.50;16.87;;;;;;;;;;4996289;28;20197;-84
2022/06/23 03:14:07;;;;;;;22.03;17.73;;;;;;;;;;5006219;28;20541;-84
2022/06/23 03:17:24;;;;;;;19.10;15.10;;;;;;;;;;5017680;28;20711;-84
2022/06/23 03:20:42;;;;;;;21.73;17.07;;;;;;;;;;4978052;28;20546;-84
2022/06/23 03:23:57;;;;;;;18.90;16.40;;;;;;;;;;4978407;28;20194;-84
2022/06/23 03:27:13;;;;;;;19.33;16.97;;;;;;;;;;4978461;28;20238;-84
2022/06/23 03:30:43;;;;;;;21.33;17.47;;;;;;;;;;4988878;28;20194;-83
2022/06/23 03:34:14;;;;;;;21.83;19.10;;;;;;;;;;4967161;28;20649;-84
2022/06/23 03:37:23;;;;;;;24.27;19.50;;;;;;;;;;4997058;28;20228;-84
2022/06/23 03:44:42;;;;;;;25.37;21.33;;;;;;;;;;4978713;28;20186;-84
2022/06/23 03:48:04;;;;;;;23.17;19.07;;;;;;;;;;4967976;28;20229;-84
2022/06/23 03:51:17;;;;;;;25.43;18.53;;;;;;;;;;4994469;28;20200;-84
2022/06/23 03:54:33;;;;;;;22.50;19.83;;;;;;;;;;5005527;28;20648;-84
2022/06/23 03:57:43;;;;;;;22.07;17.70;;;;;;;;;;4992841;28;20212;-84
2022/06/23 04:01:00;;;;;;;19.73;17.63;;;;;;;;;;4998179;28;20209;-84
2022/06/23 04:04:14;;;;;;;26.07;18.57;;;;;;;;;;4998145;28;20546;-84
2022/06/23 04:07:30;;;;;;;24.93;21.43;;;;;;;;;;4998185;28;20220;-84
2022/06/23 04:10:42;;;;;;;22.00;19.67;;;;;;;;;;4997200;28;20205;-84
2022/06/23 04:13:46;;;;;;;20.73;17.03;;;;;;;;;;4988590;28;20197;-84
2022/06/23 04:16:58;;;;;;;23.40;19.30;;;;;;;;;;5005057;28;20231;-84
2022/06/23 04:20:09;;;;;;;28.90;20.40;;;;;;;;;;4993462;28;20200;-84
2022/06/23 04:23:17;;;;;;;26.70;21.07;;;;;;;;;;5015318;28;20196;-84
2022/06/23 04:26:36;;;;;;;24.97;20.70;;;;;;;;;;5015733;28;20216;-84
2022/06/23 04:29:41;;;;;;;26.17;20.63;;;;;;;;;;4976863;28;20190;-84
2022/06/23 04:32:49;;;;;;;27.00;20.67;;;;;;;;;;4977405;28;20558;-83
2022/06/23 04:35:56;;;;;;;22.33;18.63;;;;;;;;;;4997547;28;20592;-84
2022/06/23 04:39:07;;;;;;;26.90;22.77;;;;;;;;;;5033398;23;20255;-85
2022/06/23 04:42:27;;;;;;;32.20;23.27;;;;;;;;;;5001981;28;20196;-86
2022/06/23 04:45:38;;;;;;;28.83;21.50;;;;;;;;;;5002140;28;20181;-86
2022/06/23 04:48:55;;;;;;;25.67;22.70;;;;;;;;;;4993450;28;20225;-86
2022/06/23 04:52:04;;;;;;;28.33;24.03;;;;;;;;;;4982618;28;20186;-86
2022/06/23 04:55:14;;;;;;;24.63;20.97;;;;;;;;;;4981999;28;20189;-86
2022/06/23 04:58:24;;;;;;;23.20;18.83;;;;;;;;;;4993971;28;20221;-85
2022/06/23 05:01:37;;;;;;;21.37;19.13;;;;;;;;;;4944137;29;20187;-87
2022/06/23 05:04:44;;;;;;;30.57;23.50;;;;;;;;;;4954596;29;20191;-85
2022/06/23 05:07:58;;;;;;;33.30;21.93;;;;;;;;;;4963202;28;20217;-85
2022/06/23 05:11:29;;;;;;;28.07;20.73;;;;;;;;;;4989970;28;20201;-86
2022/06/23 05:14:42;;;;;;;25.57;20.17;;;;;;;;;;4952543;28;20194;-86
2022/06/23 05:17:58;;;;;;;26.53;20.27;;;;;;;;;;4968880;28;20219;-87
2022/06/23 05:21:10;;;;;;;25.40;19.13;;;;;;;;;;4957954;29;20187;-86
2022/06/23 05:24:24;;;;;;;25.93;21.23;;;;;;;;;;4958043;29;20559;-86
2022/06/23 05:27:33;;;;;;;23.10;20.23;;;;;;;;;;4935436;29;20219;-86
2022/06/23 05:30:41;;;;;;;28.17;20.73;;;;;;;;;;4957372;29;20206;-86
2022/06/23 05:33:49;;;;;;;22.10;18.67;;;;;;;;;;4950689;28;20222;-86
2022/06/23 05:37:02;;;;;;;22.23;18.83;;;;;;;;;;4965368;28;20233;-86
2022/06/23 05:40:24;;;;;;;20.67;16.77;;;;;;;;;;4965768;28;20202;-86
2022/06/23 05:43:33;;;;;;;23.30;16.67;;;;;;;;;;4954147;28;20191;-87
2022/06/23 05:46:40;;;;;;;20.27;15.47;;;;;;;;;;4976469;28;20598;-87
2022/06/23 05:49:49;;;;;;;24.33;15.70;;;;;;;;;;4961014;28;20588;-87
2022/06/23 05:53:06;;;;;;;21.43;14.73;;;;;;;;;;4973869;28;20188;-87
2022/06/23 05:56:16;;;;;;;19.00;14.73;;;;;;;;;;4976390;28;20744;-87
2022/06/23 05:59:45;;;;;;;22.77;16.17;;;;;;;;;;4954253;28;20281;-89
2022/06/23 06:03:15;;;;;;;24.50;16.00;;;;;;;;;;4967785;28;20205;-88
2022/06/23 06:06:25;;;;;;;19.47;15.13;;;;;;;;;;4981478;28;20676;-89
2022/06/23 06:09:36;;;;;;;20.57;15.57;;;;;;;;;;4973329;28;20680;-89
2022/06/23 06:12:48;;;;;;;25.37;15.07;;;;;;;;;;4995902;28;20197;-89
2022/06/23 06:15:56;;;;;;;21.37;14.27;;;;;;;;;;4975558;28;20229;-89
2022/06/23 06:19:03;;;;;;;17.73;14.37;;;;;;;;;;4971944;28;20234;-90
2022/06/23 06:22:35;;;;;;;23.33;14.40;;;;;;;;;;4984090;28;20186;-90
2022/06/23 06:25:45;;;;;;;22.63;14.50;;;;;;;;;;4967296;28;20199;-89
2022/06/23 06:28:50;;;;;;;22.33;15.40;;;;;;;;;;4956472;29;20227;-90
2022/06/23 06:32:06;;;;;;;22.50;14.50;;;;;;;;;;4984840;28;20206;-90
2022/06/23 06:35:33;;;;;;;17.60;14.33;;;;;;;;;;4992100;28;20672;-89
2022/06/23 06:38:37;;;;;;;18.70;14.07;;;;;;;;;;4995168;28;20242;-88
2022/06/23 06:41:45;;;;;;;20.80;14.33;;;;;;;;;;4984202;28;20553;-87
2022/06/23 06:44:52;;;;;;;16.77;13.07;;;;;;;;;;4981500;28;20573;-87
2022/06/23 06:47:57;;;;;;;14.83;12.90;;;;;;;;;;4954069;28;20227;-87
2022/06/23 06:51:05;;;;;;;20.30;12.70;;;;;;;;;;4953310;28;20228;-87
2022/06/23 06:54:24;;;;;;;16.10;11.00;;;;;;;;;;4966201;28;20210;-88
2022/06/23 06:57:32;;;;;;;17.30;11.07;;;;;;;;;;4979132;28;20238;-87
2022/06/23 07:01:03;;;;;;;18.73;11.57;;;;;;;;;;4963839;28;20288;-87
2022/06/23 07:04:25;;;;;;;19.77;11.37;;;;;;;;;;4966696;28;20202;-87
2022/06/23 07:07:35;;;;;;;16.00;11.13;;;;;;;;;;4966917;28;20718;-87
2022/06/23 07:10:48;;;;;;;17.23;11.33;;;;;;;;;;4984097;28;20680;-89
2022/06/23 07:14:07;;;;;;;17.33;11.23;;;;;;;;;;4982999;28;20186;-89
2022/06/23 07:17:21;;;;;;;19.27;10.80;;;;;;;;;;4994498;28;20716;-89
2022/06/23 07:20:32;;;;;;;15.60;11.17;;;;;;;;;;4994247;28;20189;-88
2022/06/23 07:23:57;;;;;;;15.30;10.73;;;;;;;;;;4971940;28;20185;-89
2022/06/23 07:27:09;;;;;;;21.03;15.03;;;;;;;;;;4983449;28;20194;-89
2022/06/23 07:30:17;;;;;;;14.83;10.60;;;;;;;;;;4994356;28;20646;-88
2022/06/23 07:33:27;;;;;;;15.03;11.10;;;;;;;;;;4993740;28;20212;-88
2022/06/23 07:36:37;;;;;;;16.33;10.80;;;;;;;;;;4972102;28;20238;-88
2022/06/23 07:39:41;;;;;;;17.53;10.67;;;;;;;;;;4963607;28;20196;-87
2022/06/23 07:42:49;;;;;;;18.80;10.20;;;;;;;;;;4969903;28;20190;-88
2022/06/23 07:45:56;;;;;;;15.93;10.03;;;;;;;;;;4998733;28;20550;-87
2022/06/23 07:49:01;;;;;;;14.27;9.73;;;;;;;;;;4982325;28;20230;-87
2022/06/23 07:52:06;;;;;;;16.10;8.87;;;;;;;;;;4992576;28;20188;-88
2022/06/23 07:55:20;;;;;;;15.60;9.57;;;;;;;;;;4986899;28;20202;-88
2022/06/23 07:58:28;;;;;;;18.20;8.47;;;;;;;;;;4994325;28;20238;-88
2022/06/23 08:01:45;;;;;;;16.47;8.30;;;;;;;;;;4994023;28;20188;-88
2022/06/23 08:05:27;;;;;;;12.53;7.07;;;;;;;;;;4977406;28;20191;-88
2022/06/23 08:08:34;;;;;;;18.98;6.40;;;;;;;;;;4964246;28;20584;-88
2022/06/23 08:19:05;;;;;;;10.43;6.13;;;;;;;;;;5004848;28;20731;-89
2022/06/23 08:22:17;;;;;;;13.57;6.00;;;;;;;;;;4978780;28;20207;-89
2022/06/23 08:25:21;;;;;;;14.23;6.63;;;;;;;;;;4982438;28;20211;-88
2022/06/23 08:28:27;;;;;;;16.40;7.60;;;;;;;;;;4982266;28;20223;-88
2022/06/23 08:31:31;;;;;;;14.90;8.10;;;;;;;;;;4993595;28;20588;-88
2022/06/23 08:34:40;;;;;;;14.77;7.90;;;;;;;;;;4981810;28;20202;-87
2022/06/23 08:38:07;;;;;;;15.35;7.45;;;;;;;;;;4971032;28;20241;-88
2022/06/23 08:41:36;;;;;;;16.15;7.22;;;;;;;;;;4943072;29;20564;-88
2022/06/23 08:44:49;;;;;;;10.50;6.43;;;;;;;;;;4971203;28;20213;-88
2022/06/23 08:48:04;;;;;;;14.35;6.70;;;;;;;;;;4974426;28;20229;-88
2022/06/23 08:51:16;;;;;;;14.25;6.00;;;;;;;;;;4954698;28;20200;-88
2022/06/23 08:54:36;;;;;;;13.95;6.10;;;;;;;;;;4967928;28;20194;-88
2022/06/23 08:57:43;;;;;;;13.23;5.72;;;;;;;;;;4960331;28;20255;-88
2022/06/23 09:00:56;;;;;;;11.95;4.50;;;;;;;;;;4967692;28;20199;-88
2022/06/23 09:04:45;;;;;;;11.55;5.20;;;;;;;;;;4985927;28;20189;-88
2022/06/23 09:08:14;;;;;;;12.20;6.20;;;;;;;;;;4996708;28;20229;-88
2022/06/23 09:11:24;;;;;;;11.55;5.38;;;;;;;;;;5000542;28;20187;-88
2022/06/23 09:14:48;;;;;;;15.65;5.95;;;;;;;;;;4966848;28;20215;-89
2022/06/23 09:18:13;;;;;;;10.50;4.82;;;;;;;;;;4955167;28;20247;-88
2022/06/23 09:21:36;;;;;;;15.27;5.32;;;;;;;;;;4956522;28;20206;-88
2022/06/23 09:24:55;;;;;;;10.75;4.20;;;;;;;;;;4955743;28;20674;-88
2022/06/23 09:28:33;;;;;;;16.23;4.80;;;;;;;;;;4971469;28;20596;-89
2022/06/23 09:32:28;;;;;;;14.57;5.53;;;;;;;;;;4985600;28;20281;-89
2022/06/23 09:35:55;;;;;;;13.85;4.28;;;;;;;;;;4953259;28;20197;-89
2022/06/23 09:39:33;;;;;;;11.68;4.32;;;;;;;;;;4967888;28;20257;-89
2022/06/23 09:42:55;;;;;;;13.23;4.40;;;;;;;;;;4985269;28;20180;-89
2022/06/23 09:46:17;;;;;;;10.55;4.63;;;;;;;;;;4946345;29;20201;-86
2022/06/23 09:49:49;;;;;;;19.83;5.07;;;;;;;;;;4957314;29;20640;-88
2022/06/23 09:53:15;;;;;;;15.25;4.68;;;;;;;;;;4977954;28;20201;-88
2022/06/23 09:56:27;;;;;;;11.40;4.25;;;;;;;;;;4987709;28;20214;-88
2022/06/23 09:59:35;;;;;;;13.35;4.68;;;;;;;;;;4993451;28;20199;-88
2022/06/23 10:02:46;;;;;;;15.48;4.47;;;;;;;;;;4984644;28;20198;-88
2022/06/23 10:05:51;;;;;;;11.02;4.28;;;;;;;;;;4995759;28;20198;-89
2022/06/23 10:09:16;;;;;;;10.25;4.70;;;;;;;;;;4984597;28;20714;-89
2022/06/23 10:12:48;;;;;;;11.10;4.70;;;;;;;;;;4984766;28;20190;-90
2022/06/23 10:16:21;;;;;;;14.43;4.78;;;;;;;;;;4972643;28;20554;-90
2022/06/23 10:19:48;;;;;;;9.63;4.13;;;;;;;;;;4963176;28;20202;-90
2022/06/23 10:22:59;;;;;;;14.15;4.13;;;;;;;;;;4971525;28;20190;-90
2022/06/23 10:26:12;;;;;;;11.57;3.78;;;;;;;;;;4958917;28;20188;-91
2022/06/23 10:29:32;;;;;;;14.07;4.05;;;;;;;;;;4968134;28;20184;-91
2022/06/23 10:32:56;;;;;;;13.38;4.50;;;;;;;;;;4984331;28;20644;-92
2022/06/23 10:36:28;;;;;;;12.52;3.97;;;;;;;;;;4952285;28;20203;-90
2022/06/23 10:40:01;;;;;;;17.38;3.78;;;;;;;;;;4964955;28;20279;-91
2022/06/23 10:43:44;;;;;;;10.02;3.85;;;;;;;;;;5008506;23;20242;-89
2022/06/23 10:47:17;;;;;;;13.38;4.15;;;;;;;;;;4953380;28;20186;-89
2022/06/23 10:50:57;;;;;;;11.75;3.70;;;;;;;;;;4953739;28;20199;-90
2022/06/23 10:54:01;;;;;;;9.13;3.65;;;;;;;;;;4944875;29;20211;-89
2022/06/23 10:57:08;;;;;;;13.80;3.65;;;;;;;;;;4934142;29;20180;-90
2022/06/23 11:00:18;;;;;;;18.38;3.67;;;;;;;;;;4944863;29;20200;-89
2022/06/23 11:04:06;;;;;;;13.27;3.47;;;;;;;;;;4966997;28;20317;-89
2022/06/23 11:07:30;;;;;;;11.30;3.95;;;;;;;;;;4956369;29;20204;-89
2022/06/23 11:10:38;;;;;;;10.50;3.60;;;;;;;;;;4955967;29;20199;-89
2022/06/23 11:14:02;;;;;;;12.93;4.00;;;;;;;;;;4955759;28;20206;-89
2022/06/23 11:17:21;;;;;;;14.50;3.95;;;;;;;;;;4933600;29;20196;-88
2022/06/23 11:21:01;;;;;;;13.52;3.58;;;;;;;;;;4944678;29;20188;-89
2022/06/23 11:24:22;;;;;;;15.63;3.55;;;;;;;;;;4933692;29;20203;-89
2022/06/23 11:27:44;;;;;;;12.85;3.40;;;;;;;;;;4966621;28;20181;-89
2022/06/23 11:31:25;;;;;;;15.35;3.67;;;;;;;;;;4944834;29;20191;-89
2022/06/23 11:34:55;;;;;;;14.98;3.70;;;;;;;;;;4955526;29;20541;-89
2022/06/23 11:38:06;;;;;;;11.57;3.63;;;;;;;;;;4946904;29;20584;-90
2022/06/23 11:41:52;;;;;;;14.50;4.22;;;;;;;;;;4925697;29;20192;-89
2022/06/23 11:45:24;;;;;;;9.57;3.50;;;;;;;;;;4930674;29;20594;-88
2022/06/23 11:49:02;;;;;;;12.20;4.05;;;;;;;;;;4925038;29;20181;-88
2022/06/23 11:52:30;;;;;;;11.43;3.40;;;;;;;;;;4946401;29;20301;-90
2022/06/23 11:55:43;;;;;;;9.48;3.05;;;;;;;;;;4946820;29;20660;-90
2022/06/23 11:59:19;;;;;;;8.60;3.20;;;;;;;;;;4924673;29;20228;-89
2022/06/23 12:02:23;;;;;;;8.95;3.10;;;;;;;;;;4936779;28;20564;-89
2022/06/23 12:05:46;;;;;;;13.82;3.33;;;;;;;;;;4946979;29;20185;-89
2022/06/23 12:09:15;;;;;;;14.00;3.83;;;;;;;;;;4924539;29;20185;-90
2022/06/23 12:12:20;;;;;;;17.15;3.33;;;;;;;;;;4924793;29;20224;-89
2022/06/23 12:15:31;;;;;;;10.57;3.75;;;;;;;;;;4935722;29;20184;-89
2022/06/23 12:18:47;;;;;;;10.10;3.33;;;;;;;;;;4946757;29;20711;-89
2022/06/23 12:22:39;;;;;;;11.88;3.47;;;;;;;;;;4935501;29;20231;-89
2022/06/23 12:26:00;;;;;;;14.32;4.28;;;;;;;;;;4928746;29;20192;-89
2022/06/23 12:29:09;;;;;;;11.02;3.67;;;;;;;;;;4939591;29;20192;-89
2022/06/23 12:32:38;;;;;;;9.77;3.42;;;;;;;;;;4942755;29;20303;-89
2022/06/23 12:36:09;;;;;;;11.27;3.05;;;;;;;;;;4941301;29;20196;-89
2022/06/23 12:39:41;;;;;;;11.45;3.60;;;;;;;;;;4936666;29;20219;-89
2022/06/23 12:42:52;;;;;;;11.55;2.88;;;;;;;;;;4949782;29;20239;-89
2022/06/23 12:46:45;;;;;;;10.52;3.17;;;;;;;;;;4969490;28;20196;-89
2022/06/23 12:50:19;;;;;;;4.85;2.60;;;;;;;;;;4937342;29;20197;-89
2022/06/23 12:53:30;;;;;;;8.88;3.75;;;;;;;;;;4931682;28;20223;-89
2022/06/23 12:56:52;;;;;;;13.07;3.00;;;;;;;;;;4957771;29;20192;-88
2022/06/23 13:00:05;;;;;;;10.57;2.83;;;;;;;;;;4933503;29;20682;-90
2022/06/23 13:03:24;;;;;;;9.15;2.75;;;;;;;;;;4968652;28;20230;-89
2022/06/23 13:06:43;;;;;;;10.13;2.75;;;;;;;;;;4935895;29;20192;-89
2022/06/23 13:09:57;;;;;;;8.25;2.33;;;;;;;;;;4957400;29;20191;-89
2022/06/23 13:13:15;;;;;;;11.30;3.00;;;;;;;;;;4935505;29;20219;-89
2022/06/23 13:16:24;;;;;;;12.65;3.00;;;;;;;;;;4945954;29;20199;-88
2022/06/23 13:19:34;;;;;;;9.48;2.40;;;;;;;;;;4935433;29;20224;-88
2022/06/23 13:22:56;;;;;;;6.47;2.47;;;;;;;;;;4938265;29;20220;-87
2022/06/23 13:26:17;;;;;;;12.77;2.47;;;;;;;;;;4945902;29;20196;-88
2022/06/23 13:29:39;;;;;;;12.52;2.90;;;;;;;;;;4949147;29;20185;-87
2022/06/23 13:33:02;;;;;;;7.93;2.70;;;;;;;;;;4927700;29;20220;-88
2022/06/23 13:36:20;;;;;;;9.75;3.00;;;;;;;;;;4957151;28;20192;-88
2022/06/23 13:39:42;;;;;;;7.13;2.85;;;;;;;;;;4946556;29;20663;-88
2022/06/23 13:43:02;;;;;;;12.60;2.92;;;;;;;;;;4978319;28;20235;-88
2022/06/23 13:46:39;;;;;;;7.97;2.47;;;;;;;;;;4935561;29;20192;-88
2022/06/23 13:50:00;;;;;;;10.80;2.97;;;;;;;;;;4956588;29;20192;-89
2022/06/23 13:53:28;;;;;;;10.50;2.75;;;;;;;;;;4937849;29;20238;-90
2022/06/23 13:56:58;;;;;;;8.02;2.70;;;;;;;;;;4938021;29;20547;-90
2022/06/23 14:00:38;;;;;;;13.18;3.65;;;;;;;;;;4948934;29;20212;-89
2022/06/23 14:04:04;;;;;;;8.93;2.60;;;;;;;;;;4926668;29;20683;-89
2022/06/23 14:07:32;;;;;;;8.63;2.90;;;;;;;;;;4938152;29;20188;-89
2022/06/23 14:10:46;;;;;;;11.27;2.85;;;;;;;;;;4927220;29;20180;-89
2022/06/23 14:14:02;;;;;;;10.18;2.63;;;;;;;;;;4956918;28;20203;-90
2022/06/23 14:17:17;;;;;;;11.02;2.80;;;;;;;;;;4937400;29;20189;-89
2022/06/23 14:20:35;;;;;;;7.72;2.60;;;;;;;;;;4926595;29;20197;-89
2022/06/23 14:23:56;;;;;;;9.23;2.95;;;;;;;;;;4926140;29;20201;-89
2022/06/23 14:27:26;;;;;;;10.80;2.63;;;;;;;;;;4937358;29;20631;-89
2022/06/23 14:30:43;;;;;;;8.20;2.38;;;;;;;;;;4952633;29;20194;-89
2022/06/23 14:33:53;;;;;;;9.65;2.30;;;;;;;;;;4956899;28;20204;-89
2022/06/23 14:37:17;;;;;;;9.25;2.80;;;;;;;;;;4956850;29;20192;-88
2022/06/23 14:40:30;;;;;;;9.13;2.60;;;;;;;;;;4956883;29;20212;-89
2022/06/23 14:43:41;;;;;;;8.80;2.83;;;;;;;;;;4956696;29;20547;-89
2022/06/23 14:47:42;;;;;;;8.90;2.72;;;;;;;;;;4933220;28;20188;-89
2022/06/23 14:51:00;;;;;;;8.40;2.33;;;;;;;;;;4952109;28;20576;-89
2022/06/23 14:54:09;;;;;;;10.75;2.60;;;;;;;;;;4937630;28;20200;-89
2022/06/23 14:57:26;;;;;;;11.52;3.05;;;;;;;;;;4956041;28;20195;-89
2022/06/23 15:00:57;;;;;;;8.20;2.35;;;;;;;;;;4955722;29;20176;-89
2022/06/23 15:04:17;;;;;;;9.77;2.88;;;;;;;;;;4955765;29;20192;-89
2022/06/23 15:07:27;;;;;;;7.97;1.98;;;;;;;;;;4933816;29;20530;-89
2022/06/23 15:10:49;;;;;;;11.55;3.10;;;;;;;;;;4944448;29;20180;-89
2022/06/23 15:14:11;;;;;;;9.75;2.85;;;;;;;;;;4933960;29;20211;-89
2022/06/23 15:17:47;;;;;;;6.13;2.30;;;;;;;;;;4966499;28;20196;-90
2022/06/23 15:21:02;;;;;;;8.13;2.40;;;;;;;;;;4958148;28;20680;-89
2022/06/23 15:24:13;;;;;;;11.88;2.90;;;;;;;;;;4952516;29;20192;-89
2022/06/23 15:27:54;;;;;;;22.60;3.30;;;;;;;;;;4959273;29;20200;-89
2022/06/23 15:31:27;;;;;;;13.38;2.78;;;;;;;;;;4943010;29;20207;-89
2022/06/23 15:34:53;;;;;;;8.32;2.67;;;;;;;;;;4946063;29;20692;-87
2022/06/23 15:38:15;;;;;;;7.97;2.28;;;;;;;;;;4956421;29;20575;-89
2022/06/23 15:41:40;;;;;;;7.03;2.60;;;;;;;;;;4960332;28;20192;-89
2022/06/23 15:45:02;;;;;;;6.68;2.60;;;;;;;;;;4961159;29;20180;-90
2022/06/23 15:48:15;;;;;;;12.45;3.00;;;;;;;;;;4953488;29;20188;-89
2022/06/23 15:51:25;;;;;;;8.20;2.20;;;;;;;;;;4955394;29;20656;-90
2022/06/23 15:54:50;;;;;;;10.55;3.03;;;;;;;;;;4936145;29;20184;-89
2022/06/23 15:58:01;;;;;;;8.73;2.60;;;;;;;;;;4944316;29;20196;-89
2022/06/23 16:01:22;;;;;;;8.40;2.40;;;;;;;;;;4962021;29;20180;-88
2022/06/23 16:04:32;;;;;;;6.53;2.28;;;;;;;;;;4938977;29;20688;-88
2022/06/23 16:07:39;;;;;;;9.20;2.63;;;;;;;;;;4960458;29;20180;-89
2022/06/23 16:10:57;;;;;;;11.80;3.17;;;;;;;;;;4967237;28;20281;-88
2022/06/23 16:14:10;;;;;;;8.75;2.70;;;;;;;;;;4932579;29;20203;-88
2022/06/23 16:17:29;;;;;;;10.45;2.63;;;;;;;;;;4954984;29;20631;-88
2022/06/23 16:20:43;;;;;;;13.20;2.65;;;;;;;;;;4966132;28;20223;-88
2022/06/23 16:23:55;;;;;;;10.18;2.70;;;;;;;;;;4958202;28;20196;-88
2022/06/23 16:27:31;;;;;;;8.68;2.75;;;;;;;;;;4937315;29;20647;-89
2022/06/23 16:30:42;;;;;;;10.55;2.75;;;;;;;;;;4947019;29;20205;-88
2022/06/23 16:34:06;;;;;;;9.65;2.78;;;;;;;;;;4936518;29;20197;-87
2022/06/23 16:37:20;;;;;;;9.25;2.33;;;;;;;;;;4925467;29;20187;-87
2022/06/23 16:40:29;;;;;;;8.60;2.78;;;;;;;;;;4934404;29;20214;-87
2022/06/23 16:43:38;;;;;;;10.00;2.95;;;;;;;;;;4933996;29;20224;-89
2022/06/23 16:46:49;;;;;;;10.65;3.08;;;;;;;;;;4945725;29;20191;-88
2022/06/23 16:50:17;;;;;;;9.70;3.10;;;;;;;;;;4924266;29;20210;-87
2022/06/23 16:53:44;;;;;;;12.32;3.00;;;;;;;;;;4934788;29;20225;-87
2022/06/23 16:57:04;;;;;;;15.57;2.70;;;;;;;;;;5022823;23;20228;-88
2022/06/23 17:00:16;;;;;;;7.82;2.45;;;;;;;;;;4982361;28;20217;-88
2022/06/23 17:03:26;;;;;;;10.90;2.58;;;;;;;;;;5004972;28;20197;-88
2022/06/23 17:06:59;;;;;;;9.50;2.30;;;;;;;;;;4982580;28;20220;-88
2022/06/23 17:10:15;;;;;;;7.18;2.53;;;;;;;;;;4963366;28;20193;-88
2022/06/23 17:13:22;;;;;;;10.25;2.38;;;;;;;;;;4980948;28;20192;-87
2022/06/23 17:16:47;;;;;;;8.85;2.58;;;;;;;;;;4989223;28;20197;-89
2022/06/23 17:19:55;;;;;;;6.45;2.22;;;;;;;;;;4997930;28;20556;-88
2022/06/23 17:23:01;;;;;;;9.88;2.95;;;;;;;;;;4986826;28;20179;-89
2022/06/23 17:26:08;;;;;;;10.82;2.60;;;;;;;;;;4959871;28;20573;-88
2022/06/23 17:29:36;;;;;;;8.57;2.63;;;;;;;;;;4965980;28;20179;-89
2022/06/23 17:33:02;;;;;;;9.05;2.53;;;;;;;;;;4966527;28;20183;-89
2022/06/23 17:36:34;;;;;;;8.02;2.72;;;;;;;;;;4976667;28;20218;-88
2022/06/23 17:46:53;;;;;;;9.23;2.58;;;;;;;;;;4965366;28;20224;-89
2022/06/23 17:49:58;;;;;;;6.68;2.30;;;;;;;;;;4965456;28;20186;-89
2022/06/23 17:53:21;;;;;;;10.40;3.50;;;;;;;;;;4965463;28;20195;-89
2022/06/23 17:56:49;;;;;;;13.77;2.88;;;;;;;;;;4976205;28;20236;-89
2022/06/23 17:59:58;;;;;;;5.63;2.40;;;;;;;;;;4965557;28;20214;-89
2022/06/23 18:03:17;;;;;;;9.80;3.15;;;;;;;;;;4975976;28;20177;-88
2022/06/23 18:06:25;;;;;;;7.45;2.53;;;;;;;;;;4954005;28;20219;-88
2022/06/23 18:09:30;;;;;;;10.73;2.83;;;;;;;;;;4954149;28;20175;-89
2022/06/23 18:12:43;;;;;;;5.27;2.37;;;;;;;;;;4983754;28;20200;-87
2022/06/23 18:15:54;;;;;;;8.07;2.67;;;;;;;;;;4990874;28;20225;-86
2022/06/23 18:19:08;;;;;;;14.68;3.08;;;;;;;;;;5003322;28;20187;-86
2022/06/23 18:22:20;;;;;;;8.57;3.60;;;;;;;;;;4994592;28;20191;-86
2022/06/23 18:25:30;;;;;;;9.63;2.50;;;;;;;;;;4994710;28;20202;-86
2022/06/23 18:29:06;;;;;;;9.67;2.60;;;;;;;;;;4972934;28;20188;-87
2022/06/23 18:32:22;;;;;;;9.50;2.80;;;;;;;;;;4999088;28;20199;-87
2022/06/23 18:35:33;;;;;;;15.43;3.23;;;;;;;;;;4972545;28;20228;-86
2022/06/23 18:38:58;;;;;;;11.77;3.27;;;;;;;;;;4994968;28;20194;-86
2022/06/23 18:42:16;;;;;;;11.33;3.43;;;;;;;;;;4993219;28;20179;-86
2022/06/23 18:45:23;;;;;;;14.77;4.20;;;;;;;;;;5014369;28;20216;-86
2022/06/23 18:48:34;;;;;;;12.33;3.97;;;;;;;;;;5003454;28;20195;-86
2022/06/23 18:51:38;;;;;;;8.70;3.50;;;;;;;;;;5003668;28;20179;-86
2022/06/23 18:54:53;;;;;;;12.87;3.07;;;;;;;;;;5013802;28;20206;-85
2022/06/23 18:58:01;;;;;;;8.67;2.93;;;;;;;;;;5001442;28;20650;-86
2022/06/23 19:01:28;;;;;;;16.53;2.90;;;;;;;;;;4991512;28;20213;-86
2022/06/23 19:05:00;;;;;;;7.57;2.60;;;;;;;;;;5011126;28;20258;-87
2022/06/23 19:08:06;;;;;;;12.20;3.13;;;;;;;;;;4974696;28;20189;-87
2022/06/23 19:11:24;;;;;;;8.47;2.83;;;;;;;;;;5002318;28;20180;-86
2022/06/23 19:14:39;;;;;;;9.97;2.80;;;;;;;;;;4991516;28;20183;-87
2022/06/23 19:18:06;;;;;;;8.70;3.20;;;;;;;;;;4991333;28;20191;-85
2022/06/23 19:21:28;;;;;;;6.07;2.60;;;;;;;;;;4991788;28;20201;-86
2022/06/23 19:24:45;;;;;;;10.50;2.83;;;;;;;;;;5003244;28;20186;-86
2022/06/23 19:27:58;;;;;;;8.37;2.83;;;;;;;;;;4990145;28;20192;-86
2022/06/23 19:31:35;;;;;;;10.13;3.70;;;;;;;;;;5000951;28;20187;-86
2022/06/23 19:34:42;;;;;;;10.90;4.23;;;;;;;;;;4972891;28;20184;-88
2022/06/23 19:37:53;;;;;;;7.20;3.27;;;;;;;;;;4975730;28;20175;-87
2022/06/23 19:41:09;;;;;;;8.60;3.00;;;;;;;;;;4981508;28;20207;-87
2022/06/23 19:44:25;;;;;;;7.87;3.17;;;;;;;;;;4984188;28;20175;-87